Time;durP1;ratioP1;P1;durP2;ratioP2;P2;SDS_P1;SDS_P2;PMS_P1;PMS_P2;Temp;Humidity;BMP_temperature;BMP_pressure;BME280_temperature;BME280_humidity;BME280_pressure;Samples;Min_cycle;Max_cycle;Signal;HPM_P1;HPM_P2
2023/04/20 00:00:10;;;;;;;7.80;4.25;;;;;;;7.62;59.74;100031.13;5009106;28;20133;-85
2023/04/20 00:02:40;;;;;;;6.57;4.22;;;;;;;7.51;60.08;100036.34;5018690;28;20180;-85
2023/04/20 00:05:09;;;;;;;7.30;3.83;;;;;;;7.43;60.64;100038.69;5016390;28;20073;-85
2023/04/20 00:07:36;;;;;;;6.55;4.18;;;;;;;7.55;60.17;100022.78;4996846;28;20050;-85
2023/04/20 00:10:03;;;;;;;13.07;3.70;;;;;;;7.51;60.43;100026.63;5007447;28;20053;-85
2023/04/20 00:12:30;;;;;;;8.35;3.75;;;;;;;7.49;60.51;100019.75;5016196;28;20046;-85
2023/04/20 00:14:57;;;;;;;6.80;3.75;;;;;;;7.45;60.23;100019.13;5010450;28;20050;-86
2023/04/20 00:17:24;;;;;;;19.70;5.55;;;;;;;7.48;59.77;100011.00;4989415;28;20057;-85
2023/04/20 00:19:51;;;;;;;8.50;4.13;;;;;;;7.39;60.62;100009.84;5017820;28;20045;-85
2023/04/20 00:22:18;;;;;;;7.10;4.43;;;;;;;7.28;61.18;100004.50;5002122;28;20053;-85
2023/04/20 00:24:44;;;;;;;7.60;4.75;;;;;;;7.42;60.74;100000.00;4985644;28;20053;-85
2023/04/20 00:27:12;;;;;;;7.38;4.07;;;;;;;7.36;60.49;100001.31;5007456;28;20309;-85
2023/04/20 00:29:38;;;;;;;7.40;3.83;;;;;;;7.43;59.70;99997.28;5011915;28;20635;-85
2023/04/20 00:32:05;;;;;;;6.65;3.75;;;;;;;7.34;61.04;99990.00;5015025;28;20441;-85
2023/04/20 00:34:32;;;;;;;4.40;3.08;;;;;;;7.22;61.31;99989.09;5011743;28;20049;-85
2023/04/20 00:36:59;;;;;;;5.15;3.25;;;;;;;7.20;61.29;99988.38;5010071;28;20081;-85
2023/04/20 00:39:26;;;;;;;8.77;4.07;;;;;;;7.25;61.36;99980.97;5018071;28;20057;-85
2023/04/20 00:41:53;;;;;;;6.05;4.43;;;;;;;7.27;61.45;99986.13;4970302;28;20041;-85
2023/04/20 00:44:20;;;;;;;8.35;4.63;;;;;;;7.28;61.04;99978.09;5003170;28;21813;-85
2023/04/20 00:46:47;;;;;;;8.43;4.63;;;;;;;7.20;61.54;99976.94;5015590;28;20091;-85
2023/04/20 00:49:14;;;;;;;7.93;4.68;;;;;;;7.23;61.45;99979.38;5015985;28;20041;-85
2023/04/20 00:51:41;;;;;;;9.15;4.57;;;;;;;7.25;61.40;99977.44;4995369;28;20104;-85
2023/04/20 00:54:08;;;;;;;6.00;4.90;;;;;;;7.24;61.51;99962.56;5009532;28;20041;-85
2023/04/20 00:56:37;;;;;;;7.47;4.13;;;;;;;7.15;60.53;99962.28;5023330;28;20414;-85
2023/04/20 00:59:06;;;;;;;7.40;4.10;;;;;;;7.15;61.32;99966.75;5016209;28;20045;-85
2023/04/20 01:01:33;;;;;;;9.38;4.57;;;;;;;7.09;61.24;99962.72;4984240;28;20415;-85
2023/04/20 01:04:01;;;;;;;9.80;4.32;;;;;;;7.04;61.44;99959.56;4982441;28;20138;-85
2023/04/20 01:06:29;;;;;;;9.02;4.40;;;;;;;7.06;61.28;99948.91;4999743;28;20061;-85
2023/04/20 01:08:56;;;;;;;8.45;4.32;;;;;;;6.95;62.19;99957.59;4993145;28;20420;-85
2023/04/20 01:11:23;;;;;;;6.68;4.20;;;;;;;6.98;61.64;99940.69;4998878;28;20112;-85
2023/04/20 01:13:56;;;;;;;9.30;4.68;;;;;;;6.96;61.40;99943.44;5002904;28;20054;-86
2023/04/20 01:16:23;;;;;;;9.45;4.63;;;;;;;6.97;61.60;99942.47;5005339;28;20049;-85
2023/04/20 01:18:50;;;;;;;8.02;4.10;;;;;;;6.95;61.84;99933.84;5004487;28;20041;-85
2023/04/20 01:21:18;;;;;;;6.88;3.78;;;;;;;7.02;61.54;99939.50;5000599;28;20049;-85
2023/04/20 01:23:45;;;;;;;6.50;4.25;;;;;;;6.96;61.69;99925.78;4985822;28;20049;-85
2023/04/20 01:26:15;;;;;;;8.73;3.90;;;;;;;7.02;60.83;99928.94;5009495;28;20042;-85
2023/04/20 01:28:42;;;;;;;9.50;4.05;;;;;;;6.96;61.42;99919.69;5015009;28;20104;-85
2023/04/20 01:31:10;;;;;;;10.77;4.80;;;;;;;7.06;60.80;99917.22;5008389;28;20176;-85
2023/04/20 01:33:38;;;;;;;10.10;4.07;;;;;;;6.94;61.45;99913.66;5004895;28;20046;-85
2023/04/20 01:36:06;;;;;;;7.65;4.10;;;;;;;6.87;62.28;99902.72;5008661;28;20048;-85
2023/04/20 01:38:35;;;;;;;8.93;4.57;;;;;;;6.93;61.04;99910.19;5015592;28;20265;-85
2023/04/20 01:41:04;;;;;;;8.95;4.50;;;;;;;7.03;60.31;99905.09;5014698;28;20045;-86
2023/04/20 01:43:32;;;;;;;6.40;4.25;;;;;;;7.09;60.26;99898.50;5001470;28;20095;-85
2023/04/20 01:45:59;;;;;;;8.95;4.38;;;;;;;6.87;62.08;99896.56;5008933;28;20050;-85
2023/04/20 01:48:27;;;;;;;6.38;3.95;;;;;;;6.87;61.03;99893.94;5012593;28;20052;-85
2023/04/20 01:50:54;;;;;;;5.80;3.75;;;;;;;6.79;62.41;99888.38;5003992;28;20050;-85
2023/04/20 01:53:22;;;;;;;8.80;4.15;;;;;;;6.78;62.34;99890.16;5005826;28;20060;-85
2023/04/20 01:55:49;;;;;;;7.53;4.60;;;;;;;6.74;62.44;99884.28;5003414;28;20507;-85
2023/04/20 01:58:16;;;;;;;6.88;4.00;;;;;;;6.70;62.91;99879.31;5008624;28;20052;-85
2023/04/20 02:00:43;;;;;;;8.27;3.90;;;;;;;6.66;62.31;99875.22;5012755;28;20076;-85
2023/04/20 02:03:10;;;;;;;8.82;4.38;;;;;;;6.66;62.54;99878.69;4992610;28;20103;-85
2023/04/20 02:05:37;;;;;;;9.32;4.13;;;;;;;6.63;62.56;99872.78;5010197;28;20072;-85
2023/04/20 02:08:04;;;;;;;8.15;4.00;;;;;;;6.60;62.73;99881.78;5007601;28;20050;-85
2023/04/20 02:10:31;;;;;;;9.48;4.68;;;;;;;6.52;62.73;99881.47;5018267;28;20041;-85
2023/04/20 02:12:59;;;;;;;8.32;4.25;;;;;;;6.54;62.87;99882.22;5009753;28;20057;-85
2023/04/20 02:15:26;;;;;;;14.45;4.28;;;;;;;6.56;62.55;99890.00;5014705;28;20064;-85
2023/04/20 02:17:52;;;;;;;10.88;5.03;;;;;;;6.53;62.57;99884.00;4999412;28;20136;-85
2023/04/20 02:20:19;;;;;;;12.48;4.15;;;;;;;6.62;61.49;99887.78;5011209;28;20810;-85
2023/04/20 02:22:48;;;;;;;6.47;3.53;;;;;;;6.59;60.90;99879.22;4998014;28;20387;-85
2023/04/20 02:25:14;;;;;;;5.80;4.47;;;;;;;6.51;61.88;99879.78;4979900;28;20475;-85
2023/04/20 02:27:42;;;;;;;6.78;3.92;;;;;;;6.48;62.07;99878.19;4996620;28;20056;-85
2023/04/20 02:30:11;;;;;;;7.13;3.92;;;;;;;6.50;62.25;99873.66;5001898;28;20057;-85
2023/04/20 02:32:40;;;;;;;6.88;3.88;;;;;;;6.46;62.36;99871.34;4986369;28;20127;-85
2023/04/20 02:35:08;;;;;;;7.63;3.78;;;;;;;6.43;61.96;99869.78;5003657;28;20645;-85
2023/04/20 02:37:34;;;;;;;4.70;3.35;;;;;;;6.27;62.38;99872.66;4995558;28;20041;-85
2023/04/20 02:40:03;;;;;;;5.50;3.53;;;;;;;6.35;62.63;99869.47;4999005;28;20098;-85
2023/04/20 02:42:30;;;;;;;5.28;3.63;;;;;;;6.24;62.07;99862.31;4975050;28;20324;-85
2023/04/20 02:45:00;;;;;;;5.07;3.60;;;;;;;6.05;63.22;99860.09;4993072;28;20139;-85
2023/04/20 02:47:26;;;;;;;6.72;4.18;;;;;;;6.18;63.29;99857.50;4985067;28;20092;-85
2023/04/20 02:49:53;;;;;;;5.00;3.38;;;;;;;6.17;63.08;99861.06;5017452;28;20041;-85
2023/04/20 02:52:20;;;;;;;6.60;3.85;;;;;;;6.10;62.82;99857.16;4999566;28;20041;-85
2023/04/20 02:54:47;;;;;;;6.05;3.53;;;;;;;6.14;63.05;99865.72;4986105;28;20779;-85
2023/04/20 02:57:14;;;;;;;9.43;4.10;;;;;;;6.12;62.44;99864.97;5000923;28;20477;-85
2023/04/20 02:59:42;;;;;;;5.43;3.60;;;;;;;6.05;63.34;99854.00;5005138;28;20650;-84
2023/04/20 03:02:15;;;;;;;5.47;3.70;;;;;;;5.90;63.36;99852.38;5017574;28;23119;-84
2023/04/20 03:04:42;;;;;;;7.82;3.97;;;;;;;5.92;63.24;99848.69;4985575;28;20138;-85
2023/04/20 03:07:19;;;;;;;31.40;13.23;;;;;;;6.06;63.17;99847.78;5000533;28;20053;-85
2023/04/20 03:09:47;;;;;;;47.60;22.38;;;;;;;6.16;62.91;99846.19;4986330;28;20084;-85
2023/04/20 03:12:21;;;;;;;37.10;19.40;;;;;;;6.09;63.09;99847.56;4996904;28;20655;-86
2023/04/20 03:14:53;;;;;;;33.58;17.30;;;;;;;5.98;63.38;99832.50;5009831;28;20049;-85
2023/04/20 03:17:27;;;;;;;24.55;13.35;;;;;;;5.93;64.20;99839.00;5003761;28;20053;-85
2023/04/20 03:19:54;;;;;;;20.13;10.57;;;;;;;5.98;64.00;99837.78;4996235;28;20053;-84
2023/04/20 03:22:20;;;;;;;12.98;6.53;;;;;;;5.99;64.39;99826.28;5021940;28;20073;-84
2023/04/20 03:24:51;;;;;;;8.63;5.00;;;;;;;5.92;64.03;99840.78;5013860;28;20249;-85
2023/04/20 03:27:51;;;;;;;8.07;4.85;;;;;;;5.99;63.93;99842.09;4996468;28;20045;-85
2023/04/20 03:30:19;;;;;;;6.43;4.75;;;;;;;5.96;63.64;99837.03;4991303;28;20042;-84
2023/04/20 03:32:51;;;;;;;10.70;6.22;;;;;;;6.00;63.68;99827.13;5007636;28;20084;-85
2023/04/20 03:35:19;;;;;;;9.48;4.32;;;;;;;5.92;64.22;99827.63;5012313;28;20049;-85
2023/04/20 03:37:46;;;;;;;6.18;3.67;;;;;;;5.99;63.98;99826.28;4999275;28;20045;-86
2023/04/20 03:40:13;;;;;;;8.73;4.68;;;;;;;6.07;63.90;99833.66;4982823;28;20379;-85
2023/04/20 03:42:40;;;;;;;8.90;4.18;;;;;;;6.12;64.43;99830.69;4998434;28;20042;-85
2023/04/20 03:45:07;;;;;;;9.30;4.60;;;;;;;6.09;64.24;99829.97;5014951;28;20528;-85
2023/04/20 03:47:34;;;;;;;7.85;4.00;;;;;;;6.23;63.93;99826.38;5001707;28;20057;-85
2023/04/20 03:50:02;;;;;;;7.43;4.55;;;;;;;6.21;63.82;99825.63;4974866;28;20065;-85
2023/04/20 03:52:29;;;;;;;6.80;4.00;;;;;;;6.21;64.10;99817.72;4980413;28;20392;-85
2023/04/20 03:54:59;;;;;;;7.93;4.05;;;;;;;6.15;64.41;99815.50;4991822;28;20045;-85
2023/04/20 03:57:27;;;;;;;6.40;4.10;;;;;;;6.17;64.59;99810.13;5014546;28;20041;-84
2023/04/20 03:59:56;;;;;;;8.70;4.22;;;;;;;6.21;64.12;99808.97;4992346;28;20060;-84
2023/04/20 04:02:26;;;;;;;7.70;4.55;;;;;;;6.35;62.25;99797.44;5015514;28;20104;-85
2023/04/20 04:04:54;;;;;;;8.13;4.95;;;;;;;6.39;62.84;99791.84;5017707;28;20157;-84
2023/04/20 04:07:21;;;;;;;10.70;4.38;;;;;;;6.44;62.83;99794.16;5016780;28;20053;-85
2023/04/20 04:09:49;;;;;;;9.90;4.80;;;;;;;6.33;62.01;99794.06;4998460;28;20047;-84
2023/04/20 04:12:16;;;;;;;8.95;5.15;;;;;;;6.47;62.56;99799.19;5019932;28;20053;-85
2023/04/20 04:14:43;;;;;;;6.80;4.50;;;;;;;6.47;62.86;99804.47;4985865;28;20516;-86
2023/04/20 04:17:13;;;;;;;10.07;4.68;;;;;;;6.29;63.17;99809.25;5011603;28;20042;-84
2023/04/20 04:19:42;;;;;;;8.50;4.25;;;;;;;6.41;62.86;99811.03;4999820;28;20049;-85
2023/04/20 04:22:09;;;;;;;8.50;4.88;;;;;;;6.39;63.06;99812.09;5002896;28;20044;-85
2023/04/20 04:24:43;;;;;;;8.07;5.07;;;;;;;6.43;62.43;99813.53;5002830;28;20096;-84
2023/04/20 04:27:14;;;;;;;11.02;4.75;;;;;;;6.54;62.49;99811.00;4999323;28;20054;-84
2023/04/20 04:29:50;;;;;;;11.73;4.38;;;;;;;6.54;61.81;99811.00;4980503;28;20080;-84
2023/04/20 04:32:19;;;;;;;5.80;4.18;;;;;;;6.35;62.63;99818.53;4997777;28;20096;-84
2023/04/20 04:34:47;;;;;;;15.45;5.18;;;;;;;6.27;63.40;99826.97;5017059;28;20057;-84
2023/04/20 04:37:17;;;;;;;10.00;4.50;;;;;;;6.21;63.47;99817.72;5018610;28;20042;-84
2023/04/20 04:39:52;;;;;;;8.32;4.82;;;;;;;6.27;63.52;99813.78;4982043;28;20057;-84
2023/04/20 04:42:27;;;;;;;12.77;4.50;;;;;;;6.24;63.41;99808.75;4994377;28;20088;-84
2023/04/20 04:44:55;;;;;;;7.05;4.35;;;;;;;6.25;63.72;99811.25;4990743;28;20847;-85
2023/04/20 04:47:29;;;;;;;10.27;5.57;;;;;;;6.41;63.22;99812.81;4960609;28;20418;-85
2023/04/20 04:49:56;;;;;;;10.02;5.13;;;;;;;6.50;63.48;99809.50;4990766;28;20054;-84
2023/04/20 04:52:23;;;;;;;7.60;4.90;;;;;;;6.44;64.93;99813.44;5022574;28;20057;-83
2023/04/20 04:54:50;;;;;;;9.32;5.50;;;;;;;6.46;64.09;99811.53;5016317;28;20046;-85
2023/04/20 04:57:16;;;;;;;11.25;5.78;;;;;;;6.49;64.23;99813.97;4996537;28;20073;-84
2023/04/20 04:59:45;;;;;;;7.30;4.38;;;;;;;6.56;64.27;99808.22;5008564;28;20076;-84
2023/04/20 05:02:12;;;;;;;6.72;4.80;;;;;;;6.63;64.15;99796.28;5013257;28;20052;-84
2023/04/20 05:04:39;;;;;;;6.57;4.57;;;;;;;6.63;63.70;99806.84;5012086;28;20507;-84
2023/04/20 05:07:06;;;;;;;6.40;4.20;;;;;;;6.58;64.58;99808.97;5007894;28;20052;-85
2023/04/20 05:09:33;;;;;;;9.07;4.80;;;;;;;6.58;64.87;99809.78;5010694;28;20112;-84
2023/04/20 05:11:59;;;;;;;8.48;4.97;;;;;;;6.66;64.85;99807.44;5011056;28;20046;-84
2023/04/20 05:14:26;;;;;;;9.00;5.32;;;;;;;6.67;64.68;99805.66;5013390;28;20129;-84
2023/04/20 05:16:53;;;;;;;11.98;5.63;;;;;;;6.80;63.84;99810.91;5009486;28;20046;-84
2023/04/20 05:19:20;;;;;;;6.88;4.80;;;;;;;6.87;64.17;99806.81;5008896;28;20060;-85
2023/04/20 05:21:47;;;;;;;14.55;5.20;;;;;;;6.93;63.49;99807.22;5010180;28;20042;-84
2023/04/20 05:24:13;;;;;;;10.73;6.05;;;;;;;7.01;63.11;99811.09;5009746;28;20104;-85
2023/04/20 05:26:40;;;;;;;9.98;6.57;;;;;;;7.11;62.38;99806.81;4996722;28;20045;-85
2023/04/20 05:29:07;;;;;;;8.00;5.38;;;;;;;7.20;62.12;99808.78;5002038;28;20053;-84
2023/04/20 05:31:34;;;;;;;11.60;5.50;;;;;;;7.20;61.90;99807.94;5011156;28;20045;-84
2023/04/20 05:34:01;;;;;;;13.13;6.75;;;;;;;7.26;61.72;99810.97;5001883;28;20054;-84
2023/04/20 05:36:32;;;;;;;11.30;6.07;;;;;;;7.26;61.62;99804.84;4997709;28;20041;-86
2023/04/20 05:38:59;;;;;;;10.25;6.28;;;;;;;7.27;61.99;99815.28;5010369;28;20081;-85
2023/04/20 05:41:26;;;;;;;13.95;6.97;;;;;;;7.34;61.82;99802.47;5002114;28;20075;-85
2023/04/20 05:43:53;;;;;;;11.15;6.40;;;;;;;7.34;61.75;99813.03;4996801;28;20108;-84
2023/04/20 05:46:23;;;;;;;11.05;6.03;;;;;;;7.24;61.99;99815.50;5012353;28;20046;-85
2023/04/20 05:48:50;;;;;;;10.60;5.82;;;;;;;7.27;62.20;99819.72;5007003;28;20049;-85
2023/04/20 05:51:16;;;;;;;12.15;5.70;;;;;;;7.25;62.22;99816.34;5000097;28;20446;-84
2023/04/20 05:53:43;;;;;;;15.52;7.40;;;;;;;7.31;61.84;99815.91;4999189;28;20057;-85
2023/04/20 05:56:10;;;;;;;11.02;6.68;;;;;;;7.37;61.52;99808.34;5005341;28;20053;-84
2023/04/20 05:58:37;;;;;;;10.18;5.88;;;;;;;7.34;61.63;99813.84;5013790;28;20128;-84
2023/04/20 06:01:04;;;;;;;9.23;5.90;;;;;;;7.41;61.68;99811.59;5012068;28;20059;-85
2023/04/20 06:03:31;;;;;;;10.18;6.15;;;;;;;7.40;62.03;99812.53;5012721;28;20049;-85
2023/04/20 06:05:58;;;;;;;10.82;6.30;;;;;;;7.42;62.19;99808.00;5015185;28;20050;-85
2023/04/20 06:08:25;;;;;;;12.77;6.00;;;;;;;7.43;62.10;99806.19;5014628;28;20045;-85
2023/04/20 06:10:55;;;;;;;10.80;6.15;;;;;;;7.43;62.05;99808.84;5013427;28;20114;-85
2023/04/20 06:13:23;;;;;;;10.68;7.47;;;;;;;7.48;62.21;99804.91;5014201;28;20045;-85
2023/04/20 06:15:51;;;;;;;14.68;6.85;;;;;;;7.47;62.59;99805.00;5006523;28;20100;-85
2023/04/20 06:18:18;;;;;;;10.65;6.70;;;;;;;7.56;62.26;99802.50;5010673;28;20057;-85
2023/04/20 06:20:45;;;;;;;14.88;7.32;;;;;;;7.57;62.69;99798.91;5011853;28;20053;-85
2023/04/20 06:23:12;;;;;;;11.93;6.40;;;;;;;7.67;62.48;99796.41;5007984;28;20065;-85
2023/04/20 06:25:39;;;;;;;10.75;6.68;;;;;;;7.71;62.23;99797.84;5009663;28;20053;-84
2023/04/20 06:28:06;;;;;;;13.07;7.35;;;;;;;7.75;62.36;99801.09;5014768;28;20045;-84
2023/04/20 06:30:35;;;;;;;10.55;6.53;;;;;;;7.76;62.16;99800.13;5011463;28;20092;-86
2023/04/20 06:33:02;;;;;;;15.02;6.55;;;;;;;7.67;62.60;99795.56;5003181;28;20049;-85
2023/04/20 06:35:29;;;;;;;11.57;6.35;;;;;;;7.81;62.37;99803.25;4998835;28;20052;-85
2023/04/20 06:37:56;;;;;;;12.70;6.85;;;;;;;7.88;62.48;99798.34;5010908;28;20102;-85
2023/04/20 06:40:27;;;;;;;8.93;6.07;;;;;;;7.98;62.44;99791.38;4997824;28;20161;-85
2023/04/20 06:42:54;;;;;;;11.82;6.93;;;;;;;8.11;62.28;99789.44;5011305;28;20045;-85
2023/04/20 06:45:21;;;;;;;12.57;6.88;;;;;;;8.10;62.01;99790.41;5011211;28;20126;-85
2023/04/20 06:47:48;;;;;;;11.25;6.47;;;;;;;8.06;62.57;99794.25;5005112;28;20129;-85
2023/04/20 06:50:15;;;;;;;11.77;6.65;;;;;;;8.05;62.32;99795.22;5024907;28;20504;-85
2023/04/20 06:52:47;;;;;;;11.90;6.75;;;;;;;8.02;62.23;99785.72;5014450;28;20111;-85
2023/04/20 06:55:14;;;;;;;16.13;7.60;;;;;;;8.07;62.12;99784.53;5011425;28;20096;-85
2023/04/20 06:57:42;;;;;;;12.80;6.70;;;;;;;8.08;62.81;99789.69;5013940;28;20057;-84
2023/04/20 07:00:10;;;;;;;9.95;6.88;;;;;;;8.07;62.96;99788.00;5019137;28;20084;-84
2023/04/20 07:02:48;;;;;;;11.35;7.30;;;;;;;8.12;64.95;99785.00;5009433;28;20719;-85
2023/04/20 07:05:17;;;;;;;11.13;7.25;;;;;;;8.14;63.49;99786.56;5006660;28;20065;-85
2023/04/20 07:07:44;;;;;;;13.93;7.03;;;;;;;8.22;63.37;99783.31;5018144;28;21713;-86
2023/04/20 07:10:12;;;;;;;12.60;7.97;;;;;;;8.21;63.28;99777.16;5025897;28;20049;-85
2023/04/20 07:12:40;;;;;;;9.13;6.88;;;;;;;8.29;63.59;99778.38;5003249;28;20430;-85
2023/04/20 07:15:10;;;;;;;10.48;7.05;;;;;;;8.35;63.13;99773.44;5013813;28;20071;-85
2023/04/20 07:17:36;;;;;;;11.10;6.88;;;;;;;8.40;63.02;99771.28;5011747;28;20052;-85
2023/04/20 07:20:07;;;;;;;12.25;7.18;;;;;;;8.39;63.37;99771.38;4998806;28;20052;-85
2023/04/20 07:22:38;;;;;;;10.50;6.75;;;;;;;8.39;63.18;99753.72;5011359;28;20038;-85
2023/04/20 07:25:07;;;;;;;11.57;7.60;;;;;;;8.46;63.16;99757.56;4986300;28;20056;-84
2023/04/20 07:27:38;;;;;;;14.05;7.72;;;;;;;8.40;63.37;99760.72;5010861;28;20065;-85
2023/04/20 07:30:09;;;;;;;12.65;7.55;;;;;;;8.45;63.02;99755.88;4996515;28;20113;-85
2023/04/20 07:32:37;;;;;;;14.82;7.35;;;;;;;8.45;63.10;99752.41;4998982;28;20640;-85
2023/04/20 07:35:04;;;;;;;11.65;7.45;;;;;;;8.47;63.55;99756.59;5011642;28;20045;-85
2023/04/20 07:37:34;;;;;;;14.02;7.32;;;;;;;8.32;63.99;99746.38;5017289;28;20050;-85
2023/04/20 07:40:04;;;;;;;11.95;7.45;;;;;;;8.43;63.19;99757.81;5012321;28;20048;-85
2023/04/20 07:42:33;;;;;;;11.00;7.53;;;;;;;8.45;63.55;99750.59;5009109;28;21842;-85
2023/04/20 07:45:01;;;;;;;16.23;7.28;;;;;;;8.38;63.67;99752.03;5001855;28;20058;-85
2023/04/20 07:47:27;;;;;;;11.82;7.40;;;;;;;8.41;63.60;99758.91;5018313;28;20049;-85
2023/04/20 07:49:56;;;;;;;14.65;8.45;;;;;;;8.47;63.45;99747.81;5004835;28;20052;-85
2023/04/20 07:52:24;;;;;;;12.80;7.25;;;;;;;8.53;62.60;99755.25;5004749;28;20065;-84
2023/04/20 07:54:56;;;;;;;12.90;7.30;;;;;;;8.60;63.14;99745.00;5000713;28;20380;-85
2023/04/20 07:57:23;;;;;;;13.73;7.10;;;;;;;8.66;63.30;99752.47;5011956;28;20791;-84
2023/04/20 07:59:51;;;;;;;12.60;7.28;;;;;;;8.78;63.11;99753.28;5001828;28;20072;-86
2023/04/20 08:02:17;;;;;;;12.20;7.30;;;;;;;8.67;63.63;99749.66;4999727;28;20728;-85
2023/04/20 08:04:45;;;;;;;13.60;7.50;;;;;;;8.57;63.57;99751.38;4995968;28;20569;-85
2023/04/20 08:07:13;;;;;;;12.90;7.00;;;;;;;8.63;62.89;99739.47;5010700;28;20041;-86
2023/04/20 08:09:42;;;;;;;13.88;7.28;;;;;;;8.62;63.53;99743.91;5011486;28;20140;-85
2023/04/20 08:12:09;;;;;;;14.32;8.18;;;;;;;8.55;63.85;99750.69;5019324;28;20048;-85
2023/04/20 08:14:37;;;;;;;11.10;6.57;;;;;;;8.60;63.06;99740.56;5000074;28;20046;-85
2023/04/20 08:17:07;;;;;;;13.93;7.60;;;;;;;8.65;64.16;99738.38;5010948;28;20056;-85
2023/04/20 08:19:37;;;;;;;12.80;7.22;;;;;;;8.72;64.00;99736.06;5013282;28;20275;-85
2023/04/20 08:22:04;;;;;;;11.50;7.38;;;;;;;8.72;63.97;99735.22;5010092;28;20498;-86
2023/04/20 08:24:31;;;;;;;14.38;7.72;;;;;;;8.67;63.73;99732.94;4995030;28;20050;-85
2023/04/20 08:26:58;;;;;;;14.02;7.13;;;;;;;8.80;62.90;99733.66;5009822;28;20046;-85
2023/04/20 08:29:25;;;;;;;13.15;6.53;;;;;;;8.71;63.03;99722.97;5009301;28;20045;-86
2023/04/20 08:31:52;;;;;;;13.82;7.60;;;;;;;8.71;64.46;99721.16;5012765;28;20049;-85
2023/04/20 08:34:19;;;;;;;12.07;6.82;;;;;;;8.85;63.67;99720.00;5011254;28;20053;-85
2023/04/20 08:36:45;;;;;;;10.50;7.47;;;;;;;8.90;63.73;99731.03;5011930;28;20072;-85
2023/04/20 08:39:18;;;;;;;14.13;7.20;;;;;;;8.92;64.03;99729.13;5008574;28;20053;-85
2023/04/20 08:41:46;;;;;;;10.30;6.65;;;;;;;8.97;63.27;99718.97;5016876;28;20041;-85
2023/04/20 08:44:14;;;;;;;11.23;6.63;;;;;;;9.06;63.06;99704.97;5011543;28;20124;-85
2023/04/20 08:46:46;;;;;;;10.43;6.72;;;;;;;9.20;62.35;99714.41;4985360;28;20577;-85
2023/04/20 08:49:17;;;;;;;12.30;6.95;;;;;;;9.16;62.99;99704.19;5009057;28;20056;-86
2023/04/20 08:51:45;;;;;;;14.05;7.78;;;;;;;9.28;63.07;99717.22;5012263;28;20045;-84
2023/04/20 08:54:12;;;;;;;10.65;6.53;;;;;;;9.31;62.66;99713.47;5014041;28;20469;-85
2023/04/20 08:56:41;;;;;;;11.82;6.93;;;;;;;9.33;61.22;99716.84;5005138;28;20041;-86
2023/04/20 08:59:13;;;;;;;9.93;6.55;;;;;;;9.32;61.63;99718.66;4994837;28;20406;-85
2023/04/20 09:01:41;;;;;;;9.55;5.88;;;;;;;9.21;59.32;99718.75;5014814;28;20107;-85
2023/04/20 09:04:18;;;;;;;10.32;6.25;;;;;;;9.25;60.51;99724.59;4997396;28;20081;-85
2023/04/20 09:06:49;;;;;;;9.70;5.95;;;;;;;9.32;60.74;99723.97;5012941;28;20055;-86
2023/04/20 09:09:17;;;;;;;12.20;6.70;;;;;;;9.38;60.72;99716.47;5000796;28;20050;-86
2023/04/20 09:11:44;;;;;;;14.07;6.15;;;;;;;9.44;60.06;99715.91;5001503;28;20109;-85
2023/04/20 09:14:13;;;;;;;13.32;6.95;;;;;;;9.49;60.23;99716.38;5007600;28;20055;-85
2023/04/20 09:16:56;;;;;;;12.50;6.55;;;;;;;9.54;59.48;99722.09;5009621;28;20045;-85
2023/04/20 09:19:24;;;;;;;13.70;6.20;;;;;;;9.59;59.77;99719.06;5001329;28;20054;-85
2023/04/20 09:21:53;;;;;;;9.38;6.45;;;;;;;9.61;59.73;99711.81;4995234;28;20037;-85
2023/04/20 09:24:20;;;;;;;13.88;7.05;;;;;;;9.66;59.20;99718.41;5010136;28;20045;-85
2023/04/20 09:26:47;;;;;;;9.20;5.78;;;;;;;9.73;59.19;99705.47;5010926;28;20057;-86
2023/04/20 09:29:20;;;;;;;9.27;6.05;;;;;;;9.59;56.96;99706.66;5007184;28;20148;-85
2023/04/20 09:31:47;;;;;;;9.43;6.43;;;;;;;9.67;58.70;99706.84;5008269;28;20038;-85
2023/04/20 09:34:14;;;;;;;8.73;6.30;;;;;;;9.63;58.11;99713.38;5015819;28;20099;-85
2023/04/20 09:36:46;;;;;;;10.70;6.18;;;;;;;9.72;58.84;99699.34;4997623;28;20053;-86
2023/04/20 09:39:15;;;;;;;9.23;6.28;;;;;;;9.75;58.89;99701.72;5013333;28;20046;-85
2023/04/20 09:41:43;;;;;;;18.13;7.38;;;;;;;9.93;58.57;99709.88;5008186;28;20049;-86
2023/04/20 09:44:11;;;;;;;12.68;7.45;;;;;;;9.90;58.50;99699.53;5009552;28;20056;-86
2023/04/20 09:46:39;;;;;;;10.52;6.32;;;;;;;9.98;58.79;99702.34;5025232;28;20049;-85
2023/04/20 09:49:08;;;;;;;11.07;6.28;;;;;;;9.98;58.67;99693.56;5009764;28;20095;-86
2023/04/20 09:51:37;;;;;;;12.00;6.72;;;;;;;10.06;58.85;99684.91;5013287;28;20507;-85
2023/04/20 09:54:05;;;;;;;10.85;6.63;;;;;;;10.08;58.93;99690.94;5007945;28;20510;-85
2023/04/20 09:56:33;;;;;;;10.38;6.35;;;;;;;10.12;59.17;99689.66;5007388;28;20045;-85
2023/04/20 09:59:01;;;;;;;13.50;6.93;;;;;;;10.19;57.47;99696.94;4996350;28;20111;-86
2023/04/20 10:01:33;;;;;;;12.32;6.95;;;;;;;10.10;57.46;99686.31;5014826;28;20054;-83
2023/04/20 10:04:01;;;;;;;11.63;7.17;;;;;;;10.12;58.20;99677.22;5022739;28;20046;-84
2023/04/20 10:06:32;;;;;;;10.52;7.05;;;;;;;10.06;57.76;99672.47;4999778;28;20053;-83
2023/04/20 10:09:04;;;;;;;12.80;7.57;;;;;;;10.07;57.10;99683.94;5006738;28;20824;-83
2023/04/20 10:11:34;;;;;;;9.53;6.87;;;;;;;10.03;58.18;99680.72;5001731;28;20391;-83
2023/04/20 10:14:19;;;;;;;9.52;6.90;;;;;;;9.97;57.99;99694.50;4993866;28;20055;-85
2023/04/20 10:17:04;;;;;;;11.43;7.35;;;;;;;9.89;57.67;99687.22;5015437;28;20049;-84
2023/04/20 10:19:38;;;;;;;13.77;8.30;;;;;;;9.93;58.04;99677.22;5012500;28;20403;-83
2023/04/20 10:22:06;;;;;;;13.23;8.13;;;;;;;9.88;58.48;99676.78;5011188;28;20046;-85
2023/04/20 10:24:33;;;;;;;11.98;7.30;;;;;;;9.91;58.24;99679.97;5013495;28;20056;-85
2023/04/20 10:27:01;;;;;;;10.65;7.65;;;;;;;9.97;58.38;99670.63;4993692;28;20081;-84
2023/04/20 10:29:28;;;;;;;9.85;7.47;;;;;;;10.03;58.77;99679.88;5016861;28;20050;-84
2023/04/20 10:31:55;;;;;;;12.30;7.88;;;;;;;10.08;58.39;99664.41;5011772;28;20069;-84
2023/04/20 10:34:32;;;;;;;11.32;7.70;;;;;;;10.02;58.61;99672.88;5013552;28;20055;-84
2023/04/20 10:37:09;;;;;;;10.73;7.90;;;;;;;9.94;58.61;99676.22;5000365;28;20107;-83
2023/04/20 10:39:46;;;;;;;14.57;7.88;;;;;;;9.94;58.40;99662.97;5013643;28;20049;-84
2023/04/20 10:42:13;;;;;;;13.15;7.80;;;;;;;10.09;58.83;99660.75;5009861;28;20450;-83
2023/04/20 10:44:50;;;;;;;11.98;7.93;;;;;;;10.13;58.57;99647.09;5013333;28;20199;-83
2023/04/20 10:47:25;;;;;;;12.68;7.88;;;;;;;10.15;58.08;99642.50;5005239;28;20058;-83
2023/04/20 10:49:52;;;;;;;11.48;7.95;;;;;;;10.10;57.79;99638.53;5008179;28;20041;-84
2023/04/20 10:52:32;;;;;;;12.35;8.40;;;;;;;10.00;57.95;99630.59;5016605;28;20536;-83
2023/04/20 10:54:59;;;;;;;13.05;7.22;;;;;;;10.07;58.52;99626.41;5007915;28;20057;-83
2023/04/20 10:57:26;;;;;;;10.40;7.32;;;;;;;10.11;58.51;99635.78;5015652;28;20081;-84
2023/04/20 10:59:52;;;;;;;10.43;6.60;;;;;;;10.06;58.12;99630.03;5017164;28;20061;-83
2023/04/20 11:02:19;;;;;;;10.80;7.20;;;;;;;10.13;57.37;99628.53;5006784;28;20134;-83
2023/04/20 11:04:46;;;;;;;10.05;6.13;;;;;;;10.07;57.86;99623.75;5016117;28;20050;-84
2023/04/20 11:07:13;;;;;;;9.18;5.60;;;;;;;10.11;57.66;99626.97;5009767;28;20043;-83
2023/04/20 11:09:41;;;;;;;10.60;6.50;;;;;;;10.13;57.11;99617.06;5015481;28;20041;-83
2023/04/20 11:12:13;;;;;;;9.60;5.85;;;;;;;10.09;56.61;99634.22;5015095;28;20049;-83
2023/04/20 11:14:59;;;;;;;9.13;5.45;;;;;;;10.04;56.39;99626.69;5012758;28;20046;-83
2023/04/20 11:17:36;;;;;;;10.10;5.63;;;;;;;9.97;55.80;99625.53;4998522;28;20046;-84
2023/04/20 11:20:14;;;;;;;9.38;5.25;;;;;;;10.09;56.76;99627.09;5012258;28;20225;-84
2023/04/20 11:22:42;;;;;;;10.90;5.60;;;;;;;10.12;57.04;99618.88;5011527;28;20046;-84
2023/04/20 11:25:10;;;;;;;8.07;5.88;;;;;;;10.23;56.48;99623.22;5009311;28;20133;-84
2023/04/20 11:27:37;;;;;;;8.73;5.32;;;;;;;10.26;55.21;99617.63;5010932;28;20044;-84
2023/04/20 11:30:05;;;;;;;10.68;6.10;;;;;;;10.15;54.70;99618.59;5009518;28;20071;-84
2023/04/20 11:32:33;;;;;;;9.40;5.43;;;;;;;10.20;55.73;99615.53;4997814;28;20120;-84
2023/04/20 11:35:06;;;;;;;11.30;5.50;;;;;;;10.24;56.07;99618.75;5009283;28;20084;-84
2023/04/20 11:37:49;;;;;;;7.15;5.07;;;;;;;10.26;56.04;99612.31;4996332;28;20050;-84
2023/04/20 11:40:17;;;;;;;7.68;5.07;;;;;;;10.35;55.93;99611.50;5002392;28;20056;-84
2023/04/20 11:42:45;;;;;;;8.63;5.47;;;;;;;10.35;55.19;99616.81;5008039;28;20057;-84